Time;durP1;ratioP1;P1;durP2;ratioP2;P2;SDS_P1;SDS_P2;PMS_P1;PMS_P2;Temp;Humidity;BMP_temperature;BMP_pressure;BME280_temperature;BME280_humidity;BME280_pressure;Samples;Min_cycle;Max_cycle;Signal;HPM_P1;HPM_P2
2021/12/26 00:00:46;;;;;;;5.10;2.72;;;;;;;-0.61;60.02;100560.06;3576083;40;20119;-63
2021/12/26 00:03:12;;;;;;;4.43;2.47;;;;;;;-0.59;59.77;100562.69;3578512;40;20071;-63
2021/12/26 00:05:38;;;;;;;3.95;2.67;;;;;;;-0.37;61.11;100594.81;3577822;40;20068;-63
2021/12/26 00:08:04;;;;;;;5.05;2.60;;;;;;;-0.56;59.67;100552.06;3576627;40;20421;-62
2021/12/26 00:10:30;;;;;;;3.97;2.80;;;;;;;-0.50;60.99;100567.78;3575337;40;20356;-63
2021/12/26 00:12:58;;;;;;;5.90;2.83;;;;;;;-0.34;60.81;100595.59;3575730;40;20052;-63
2021/12/26 00:15:24;;;;;;;4.93;2.72;;;;;;;-0.37;59.84;100602.72;3578044;40;20048;-62
2021/12/26 00:17:51;;;;;;;5.20;2.90;;;;;;;-0.48;60.57;100580.06;3574697;40;20056;-62
2021/12/26 00:20:18;;;;;;;3.67;2.45;;;;;;;-0.87;59.58;100513.09;3573821;40;20119;-63
2021/12/26 00:22:44;;;;;;;3.65;2.50;;;;;;;-0.47;61.58;100579.16;3574397;40;20104;-63
2021/12/26 00:25:11;;;;;;;3.83;2.53;;;;;;;-0.42;61.05;100586.97;3578067;40;20327;-63
2021/12/26 00:27:38;;;;;;;4.05;2.70;;;;;;;-0.43;60.19;100582.59;3576921;40;20104;-63
2021/12/26 00:30:09;;;;;;;4.63;2.88;;;;;;;-0.47;61.05;100579.16;3574237;40;20060;-62
2021/12/26 00:32:35;;;;;;;5.20;3.03;;;;;;;-0.49;60.95;100573.03;3574709;40;20067;-62
2021/12/26 00:35:01;;;;;;;5.70;2.80;;;;;;;-0.48;61.19;100581.81;3574997;40;20068;-63
2021/12/26 00:37:27;;;;;;;6.03;2.95;;;;;;;-0.50;60.67;100575.72;3577939;40;20048;-63
2021/12/26 00:39:53;;;;;;;5.85;2.88;;;;;;;-0.49;61.06;100574.78;3574175;40;20291;-63
2021/12/26 00:42:18;;;;;;;4.55;2.70;;;;;;;-0.55;61.87;100561.72;3576095;40;20170;-63
2021/12/26 00:44:44;;;;;;;4.85;2.90;;;;;;;-0.52;61.72;100569.56;3574048;40;20575;-63
2021/12/26 00:47:12;;;;;;;3.92;2.45;;;;;;;-0.56;61.21;100571.41;3575933;40;20056;-63
2021/12/26 00:49:40;;;;;;;6.70;3.30;;;;;;;-0.57;61.48;100571.44;3575882;40;20530;-63
2021/12/26 00:52:07;;;;;;;10.23;3.78;;;;;;;-0.83;62.18;100527.09;3573871;40;20383;-63
2021/12/26 00:54:34;;;;;;;3.92;2.72;;;;;;;-0.65;62.69;100573.38;3573957;40;20626;-63
2021/12/26 00:57:01;;;;;;;3.38;2.40;;;;;;;-0.69;61.65;100563.78;3576300;40;20129;-62
2021/12/26 00:59:27;;;;;;;6.95;3.47;;;;;;;-0.65;61.66;100562.81;3576134;40;20070;-62
2021/12/26 01:01:54;;;;;;;6.65;3.13;;;;;;;-0.62;61.97;100568.91;3575789;40;20048;-62
2021/12/26 01:04:22;;;;;;;5.65;3.17;;;;;;;-0.54;61.76;100576.66;3576283;40;20064;-62
2021/12/26 01:06:50;;;;;;;5.85;3.05;;;;;;;-0.52;61.44;100565.16;3574908;40;20387;-63
2021/12/26 01:09:22;;;;;;;4.70;3.08;;;;;;;-0.42;62.18;100579.03;3575520;40;20052;-63
2021/12/26 01:11:52;;;;;;;5.07;3.20;;;;;;;-0.37;61.73;100585.09;3575306;40;20052;-63
2021/12/26 01:14:26;;;;;;;4.90;3.15;;;;;;;-0.31;61.10;100589.41;3576082;40;20315;-63
2021/12/26 01:17:02;;;;;;;4.57;2.85;;;;;;;-0.25;60.27;100584.84;3579962;40;20129;-63
2021/12/26 01:19:34;;;;;;;4.78;2.97;;;;;;;-0.38;60.21;100553.44;3568619;40;20052;-63
2021/12/26 01:22:00;;;;;;;5.03;3.13;;;;;;;-0.20;60.70;100570.66;3579695;40;20077;-63
2021/12/26 01:24:26;;;;;;;6.03;3.40;;;;;;;-0.14;59.95;100567.91;3577465;40;20330;-63
2021/12/26 01:26:51;;;;;;;5.43;2.90;;;;;;;-0.11;60.55;100567.81;3578717;40;20052;-63
2021/12/26 01:29:17;;;;;;;6.18;2.95;;;;;;;-0.24;60.01;100549.59;3575968;40;20073;-62
2021/12/26 01:31:43;;;;;;;4.65;3.08;;;;;;;-0.03;60.68;100572.03;3573478;40;20049;-63
2021/12/26 01:34:08;;;;;;;4.75;3.00;;;;;;;-0.01;59.34;100559.66;3576952;40;20116;-62
2021/12/26 01:36:35;;;;;;;5.13;3.40;;;;;;;-0.02;60.13;100555.28;3577436;40;20110;-63
2021/12/26 01:39:08;;;;;;;5.75;3.20;;;;;;;0.02;59.23;100558.72;3577692;40;20390;-63
2021/12/26 01:41:40;;;;;;;4.55;2.85;;;;;;;0.07;59.57;100564.78;3570619;40;20044;-63
2021/12/26 01:44:10;;;;;;;4.45;3.08;;;;;;;0.06;59.05;100567.44;3574641;40;20049;-63
2021/12/26 01:46:38;;;;;;;7.88;3.15;;;;;;;0.01;58.78;100559.63;3577608;40;20075;-63
2021/12/26 01:49:13;;;;;;;5.80;2.90;;;;;;;0.10;60.30;100562.06;3576969;40;20114;-63
2021/12/26 01:51:42;;;;;;;4.57;3.05;;;;;;;0.13;60.17;100561.13;3577003;40;20065;-63
2021/12/26 01:54:11;;;;;;;5.90;3.30;;;;;;;0.14;58.66;100562.84;3576857;40;20065;-63
2021/12/26 01:56:41;;;;;;;4.45;2.90;;;;;;;0.07;59.33;100548.91;3576084;40;20071;-64
2021/12/26 01:59:11;;;;;;;6.30;3.33;;;;;;;0.12;59.17;100567.28;3566120;40;20048;-63
2021/12/26 02:01:37;;;;;;;5.00;3.13;;;;;;;0.14;60.13;100562.84;3576573;40;20064;-63
2021/12/26 02:04:04;;;;;;;7.70;3.63;;;;;;;0.22;59.78;100566.16;3577191;40;20081;-63
2021/12/26 02:06:30;;;;;;;6.38;3.42;;;;;;;0.21;59.74;100562.66;3575293;40;20064;-63
2021/12/26 02:08:56;;;;;;;6.05;3.42;;;;;;;0.22;58.88;100559.13;3574508;40;20425;-63
2021/12/26 02:11:22;;;;;;;6.15;2.97;;;;;;;0.16;59.65;100537.25;3575604;40;20114;-63
2021/12/26 02:13:47;;;;;;;4.40;3.10;;;;;;;0.27;59.60;100556.38;3578678;40;20118;-63
2021/12/26 02:16:14;;;;;;;4.63;3.30;;;;;;;0.28;59.18;100560.75;3612955;23;20063;-65
2021/12/26 02:18:41;;;;;;;4.30;3.03;;;;;;;0.30;58.89;100560.72;3573497;40;20184;-65
2021/12/26 02:21:43;;;;;;;6.45;2.97;;;;;;;0.26;59.55;100548.50;3576381;40;20338;-65
2021/12/26 02:27:31;;;;;;;4.80;3.28;;;;;;;0.34;59.29;100554.44;3534651;40;20177;-65
2021/12/26 02:30:08;;;;;;;5.28;3.47;;;;;;;0.33;59.21;100556.22;3535014;40;20058;-66
2021/12/26 02:32:35;;;;;;;6.85;3.58;;;;;;;0.13;58.79;100519.72;3555331;40;20083;-66
2021/12/26 02:35:02;;;;;;;6.22;3.58;;;;;;;0.32;59.80;100548.31;3564078;40;20093;-65
2021/12/26 02:37:28;;;;;;;5.75;3.50;;;;;;;0.31;59.23;100546.59;3569349;40;20479;-65
2021/12/26 02:39:54;;;;;;;5.30;3.25;;;;;;;0.35;59.54;100540.31;3563867;40;20068;-65
2021/12/26 02:42:23;;;;;;;4.75;3.45;;;;;;;0.10;59.14;100501.28;3568306;40;20056;-66
2021/12/26 02:44:49;;;;;;;7.97;3.28;;;;;;;0.36;59.74;100542.94;3566890;40;20386;-66
2021/12/26 02:47:42;;;;;;;6.20;3.88;;;;;;;0.36;59.36;100540.28;3568142;40;20052;-65
2021/12/26 02:50:22;;;;;;;8.75;5.15;;;;;;;0.33;59.01;100523.63;3567575;40;20079;-65
2021/12/26 02:52:50;;;;;;;7.80;4.22;;;;;;;0.43;60.40;100538.34;3566515;40;20064;-65
2021/12/26 02:55:19;;;;;;;6.15;3.80;;;;;;;0.45;59.19;100536.56;3564251;40;20387;-65
2021/12/26 02:57:52;;;;;;;8.30;4.55;;;;;;;0.45;60.62;100542.72;3570265;40;20386;-65
2021/12/26 03:00:26;;;;;;;10.02;4.40;;;;;;;0.44;60.20;100543.63;3564694;40;20056;-66
2021/12/26 03:02:57;;;;;;;6.22;4.45;;;;;;;0.45;60.26;100542.72;3564849;40;20396;-66
2021/12/26 03:05:29;;;;;;;6.50;4.30;;;;;;;0.49;59.24;100537.34;3566131;40;20053;-66
2021/12/26 03:07:56;;;;;;;6.70;4.22;;;;;;;0.50;59.81;100537.28;3567458;40;20101;-66
2021/12/26 03:10:25;;;;;;;5.72;3.63;;;;;;;0.48;58.87;100536.47;3565166;40;20335;-66
2021/12/26 03:12:58;;;;;;;5.90;3.83;;;;;;;0.47;59.48;100530.31;3563519;40;20528;-66
2021/12/26 03:15:27;;;;;;;5.55;3.63;;;;;;;0.45;60.30;100533.91;3563936;40;20086;-66
2021/12/26 03:17:54;;;;;;;6.18;3.28;;;;;;;0.43;60.00;100535.72;3566163;40;20053;-65
2021/12/26 03:20:25;;;;;;;6.65;3.55;;;;;;;0.40;60.62;100531.38;3568055;40;20052;-66
2021/12/26 03:22:50;;;;;;;6.78;3.75;;;;;;;0.35;59.51;100521.81;3564818;40;20469;-66
2021/12/26 03:25:21;;;;;;;7.95;3.97;;;;;;;0.33;60.39;100508.63;3569725;40;20152;-66
2021/12/26 03:27:49;;;;;;;5.97;3.97;;;;;;;0.26;60.62;100516.78;3562864;40;20127;-66
2021/12/26 03:30:23;;;;;;;4.55;3.75;;;;;;;0.17;59.81;100510.78;3566737;40;20404;-66
2021/12/26 03:32:49;;;;;;;;;;;;;;;0.06;60.91;100504.88;3566166;40;20135;-65
2021/12/26 03:35:17;;;;;;;5.05;3.65;;;;;;;0.01;60.65;100512.06;3563223;40;19941;-65
2021/12/26 03:37:43;;;;;;;6.50;4.15;;;;;;;-0.05;60.77;100512.22;3564408;40;20163;-65
2021/12/26 03:40:10;;;;;;;6.03;3.53;;;;;;;-0.09;61.13;100516.69;3562496;40;20053;-65
2021/12/26 03:42:36;;;;;;;7.28;3.72;;;;;;;-0.13;61.62;100519.44;3569852;40;20071;-65
2021/12/26 03:45:06;;;;;;;5.75;3.60;;;;;;;-0.15;61.39;100518.63;3566082;40;20436;-66
2021/12/26 03:47:32;;;;;;;5.28;3.70;;;;;;;-0.22;61.35;100519.63;3564777;40;20411;-66
2021/12/26 03:49:59;;;;;;;12.68;6.40;;;;;;;-0.25;60.74;100523.25;3562540;40;20123;-66
2021/12/26 03:52:26;;;;;;;8.18;4.22;;;;;;;-0.28;61.04;100525.94;3565377;40;20299;-66
2021/12/26 03:54:53;;;;;;;4.80;3.53;;;;;;;-0.33;61.12;100515.47;3566022;40;20049;-66
2021/12/26 03:57:20;;;;;;;4.93;3.50;;;;;;;-0.41;61.95;100508.59;3567026;40;20056;-65
2021/12/26 03:59:45;;;;;;;5.35;3.72;;;;;;;-0.43;61.91;100519.22;3563094;40;20052;-65
2021/12/26 04:02:14;;;;;;;5.32;3.40;;;;;;;-0.50;61.01;100509.72;3562828;40;20377;-66
2021/12/26 04:04:41;;;;;;;5.35;3.70;;;;;;;-0.51;61.32;100511.47;3565403;40;20060;-65
2021/12/26 04:07:08;;;;;;;12.13;6.65;;;;;;;-0.57;61.44;100497.50;3565687;40;20444;-66
2021/12/26 04:09:33;;;;;;;7.07;4.80;;;;;;;-0.53;60.94;100509.78;3563318;40;20304;-66
2021/12/26 04:11:59;;;;;;;14.20;6.25;;;;;;;-0.57;61.29;100508.97;3566131;40;20056;-65
2021/12/26 04:14:25;;;;;;;7.03;4.25;;;;;;;-0.58;61.59;100501.94;3562964;40;20049;-65
2021/12/26 04:16:50;;;;;;;6.25;3.50;;;;;;;-0.64;61.51;100498.56;3569265;40;20057;-65
2021/12/26 04:19:16;;;;;;;6.22;3.63;;;;;;;-0.63;62.56;100519.66;3564313;40;20060;-66
2021/12/26 04:21:42;;;;;;;7.97;4.10;;;;;;;-0.66;61.52;100503.88;3568468;40;20045;-65
2021/12/26 04:24:08;;;;;;;5.07;3.50;;;;;;;-0.87;62.76;100472.66;3564550;40;20052;-65
2021/12/26 04:26:33;;;;;;;5.85;3.63;;;;;;;-0.78;61.64;100494.44;3564703;40;20069;-65
2021/12/26 04:28:59;;;;;;;5.05;3.40;;;;;;;-0.79;61.96;100489.22;3565380;40;20060;-66
2021/12/26 04:31:25;;;;;;;6.35;3.75;;;;;;;-0.74;62.59;100505.81;3565185;40;20058;-66
2021/12/26 04:33:51;;;;;;;4.50;3.55;;;;;;;-0.98;61.78;100468.47;3564808;40;20060;-65
2021/12/26 04:36:20;;;;;;;5.65;3.50;;;;;;;-0.76;61.72;100505.84;3565812;40;20346;-66
2021/12/26 04:38:46;;;;;;;6.00;3.85;;;;;;;-0.79;62.48;100503.28;3567229;40;20049;-66
2021/12/26 04:41:12;;;;;;;7.35;4.13;;;;;;;-0.90;61.68;100478.84;3567684;40;20738;-66
2021/12/26 04:43:38;;;;;;;5.18;3.47;;;;;;;-0.78;62.77;100502.34;3566951;40;20061;-66
2021/12/26 04:46:07;;;;;;;8.00;3.28;;;;;;;-0.86;62.53;100487.56;3566833;40;20198;-65
2021/12/26 04:48:35;;;;;;;6.05;3.47;;;;;;;-1.09;62.39;100444.06;3566144;40;20049;-65
2021/12/26 04:51:01;;;;;;;4.68;3.63;;;;;;;-0.83;62.33;100487.50;3565018;40;20101;-65
2021/12/26 04:53:27;;;;;;;6.07;3.90;;;;;;;-0.84;63.54;100491.94;3564554;40;20068;-66
2021/12/26 04:55:52;;;;;;;7.05;4.00;;;;;;;-0.86;62.66;100485.81;3566303;40;20057;-66
2021/12/26 04:58:18;;;;;;;5.03;3.50;;;;;;;-0.84;63.34;100491.94;3568446;40;20072;-66
2021/12/26 05:00:44;;;;;;;6.25;3.35;;;;;;;-0.85;62.26;100495.47;3568978;40;20049;-66
2021/12/26 05:03:09;;;;;;;6.13;4.13;;;;;;;-0.86;62.96;100491.06;3569252;40;20385;-65
2021/12/26 05:05:36;;;;;;;7.30;3.60;;;;;;;-0.86;62.36;100495.50;3567722;40;20057;-66
2021/12/26 05:08:04;;;;;;;5.20;3.42;;;;;;;-0.97;62.80;100482.53;3571023;40;20060;-66
2021/12/26 05:10:31;;;;;;;8.68;4.13;;;;;;;-0.91;64.28;100492.97;3564805;40;20295;-66
2021/12/26 05:13:00;;;;;;;6.00;3.60;;;;;;;-0.92;63.45;100488.56;3568238;40;20044;-66
2021/12/26 05:15:27;;;;;;;7.57;3.85;;;;;;;-0.94;63.70;100482.47;3568160;40;20052;-66
2021/12/26 05:17:55;;;;;;;7.50;3.80;;;;;;;-0.95;63.09;100478.09;3569498;40;20048;-64
2021/12/26 05:20:22;;;;;;;6.55;3.55;;;;;;;-0.95;63.95;100475.47;3568051;40;20059;-65
2021/12/26 05:22:54;;;;;;;5.60;3.75;;;;;;;-0.97;62.90;100477.25;3569135;40;20064;-64
2021/12/26 05:25:21;;;;;;;5.70;3.95;;;;;;;-0.97;62.61;100482.53;3568953;40;20049;-65
2021/12/26 05:27:47;;;;;;;8.10;3.80;;;;;;;-1.00;63.03;100477.31;3568387;40;20089;-65
2021/12/26 05:30:18;;;;;;;5.32;3.53;;;;;;;-1.26;63.57;100433.00;3565770;40;20060;-65
2021/12/26 05:32:45;;;;;;;5.70;3.90;;;;;;;-1.17;63.85;100449.50;3567293;40;20049;-65
2021/12/26 05:35:13;;;;;;;5.90;3.70;;;;;;;-1.04;63.86;100470.38;3564231;40;20092;-65
2021/12/26 05:37:41;;;;;;;7.05;4.78;;;;;;;-1.05;63.64;100469.47;3567604;40;20297;-65
2021/12/26 05:40:09;;;;;;;4.65;3.97;;;;;;;-1.06;63.80;100472.16;3565061;40;20053;-64
2021/12/26 05:42:36;;;;;;;6.43;4.00;;;;;;;-1.79;63.76;100351.44;3567380;40;20100;-64
2021/12/26 05:45:03;;;;;;;5.65;3.85;;;;;;;-1.12;64.65;100467.00;3567505;40;20075;-64
2021/12/26 05:47:31;;;;;;;7.75;3.80;;;;;;;-1.21;63.98;100447.81;3564245;40;20064;-64
2021/12/26 05:49:56;;;;;;;7.28;4.07;;;;;;;-1.13;64.40;100449.44;3564021;40;20053;-64
2021/12/26 05:52:22;;;;;;;6.63;3.80;;;;;;;-1.14;64.43;100458.25;3564157;40;20276;-64
2021/12/26 05:54:48;;;;;;;6.78;3.78;;;;;;;-1.15;64.57;100454.75;3566995;40;20053;-64
2021/12/26 05:57:15;;;;;;;6.43;3.70;;;;;;;-1.15;63.81;100456.50;3566676;40;20057;-64
2021/12/26 05:59:42;;;;;;;6.10;3.60;;;;;;;-1.22;63.95;100440.81;3568315;40;20060;-64
2021/12/26 06:02:09;;;;;;;6.28;3.80;;;;;;;-1.23;63.83;100439.09;3567548;40;20056;-64
2021/12/26 06:04:34;;;;;;;5.00;3.47;;;;;;;-1.17;64.71;100446.00;3564250;40;20064;-64
2021/12/26 06:07:00;;;;;;;6.82;4.28;;;;;;;-1.34;64.68;100419.94;3566617;40;20092;-65
2021/12/26 06:09:26;;;;;;;5.03;4.00;;;;;;;-1.30;64.18;100426.94;3562690;40;20099;-64
2021/12/26 06:11:52;;;;;;;6.13;3.90;;;;;;;-1.18;64.50;100447.75;3564370;40;20089;-64
2021/12/26 06:14:17;;;;;;;5.30;3.75;;;;;;;-1.22;64.17;100435.53;3570541;40;20117;-64
2021/12/26 06:16:43;;;;;;;8.27;3.97;;;;;;;-1.27;64.33;100426.88;3572294;40;20061;-64
2021/12/26 06:19:09;;;;;;;6.80;3.55;;;;;;;-1.27;64.51;100429.50;3568264;40;20056;-64
2021/12/26 06:21:35;;;;;;;7.35;4.45;;;;;;;-1.19;64.74;100445.16;3564271;40;20079;-64
2021/12/26 06:24:01;;;;;;;6.30;3.88;;;;;;;-1.27;63.87;100423.34;3568619;40;20392;-64
2021/12/26 06:26:29;;;;;;;5.88;3.65;;;;;;;-1.44;63.75;100405.22;3568416;40;20079;-64
2021/12/26 06:28:55;;;;;;;7.93;4.38;;;;;;;-1.39;64.67;100411.28;3570081;40;20048;-64
2021/12/26 06:31:21;;;;;;;4.50;3.67;;;;;;;-1.53;64.83;100392.22;3566145;40;20056;-64
2021/12/26 06:33:47;;;;;;;5.05;3.70;;;;;;;-1.35;64.50;100428.78;3568030;40;20358;-64
2021/12/26 06:36:15;;;;;;;5.15;3.70;;;;;;;-1.24;63.73;100457.56;3564363;40;20061;-64
2021/12/26 06:38:43;;;;;;;5.57;4.03;;;;;;;-1.26;64.37;100457.59;3565490;40;20066;-64
2021/12/26 06:41:12;;;;;;;5.57;4.07;;;;;;;-1.25;64.58;100455.81;3567401;40;20064;-64
2021/12/26 06:43:39;;;;;;;5.00;3.70;;;;;;;-1.25;64.54;100454.06;3571309;40;20069;-64
2021/12/26 06:46:07;;;;;;;4.57;3.75;;;;;;;-1.26;64.46;100454.09;3567524;40;20087;-64
2021/12/26 06:48:34;;;;;;;4.50;3.65;;;;;;;-1.23;65.49;100462.81;3568094;40;20068;-64
2021/12/26 06:51:01;;;;;;;6.32;3.63;;;;;;;-1.30;64.29;100453.28;3568827;40;20045;-64
2021/12/26 06:53:27;;;;;;;6.47;4.03;;;;;;;-1.24;64.87;100457.56;3565557;40;20084;-64
2021/12/26 06:55:53;;;;;;;7.95;3.95;;;;;;;-1.24;65.16;100452.28;3563288;40;20126;-64
2021/12/26 06:58:19;;;;;;;7.05;4.28;;;;;;;-1.23;64.68;100451.41;3567415;40;20057;-64
2021/12/26 07:00:46;;;;;;;7.97;4.18;;;;;;;-1.53;65.09;100398.34;3567395;40;20096;-64
2021/12/26 07:03:12;;;;;;;5.40;3.92;;;;;;;-1.41;65.19;100413.06;3568005;40;20057;-64
2021/12/26 07:05:38;;;;;;;7.25;4.25;;;;;;;-1.21;64.89;100444.31;3570253;40;20064;-64
2021/12/26 07:08:05;;;;;;;25.95;4.50;;;;;;;-1.41;64.60;100413.06;3568842;40;20061;-64
2021/12/26 07:10:31;;;;;;;8.57;3.97;;;;;;;-1.19;64.63;100450.44;3567270;40;20495;-64
2021/12/26 07:12:56;;;;;;;7.63;4.20;;;;;;;-1.19;64.54;100448.66;3564348;40;20057;-64
2021/12/26 07:15:22;;;;;;;7.18;4.40;;;;;;;-1.26;65.08;100438.28;3567234;40;20311;-64
2021/12/26 07:17:48;;;;;;;5.40;3.88;;;;;;;-1.27;64.91;100440.06;3564475;40;20068;-64
2021/12/26 07:20:14;;;;;;;7.45;4.18;;;;;;;-1.26;64.54;100447.06;3568640;40;20056;-63
2021/12/26 07:22:43;;;;;;;8.05;4.70;;;;;;;-1.20;64.98;100454.84;3563767;40;20053;-64
2021/12/26 07:25:10;;;;;;;9.02;4.28;;;;;;;-1.19;64.73;100451.28;3563290;40;20093;-64
2021/12/26 07:27:36;;;;;;;5.30;4.28;;;;;;;-1.20;64.86;100449.56;3568455;40;20591;-64
2021/12/26 07:30:04;;;;;;;9.57;4.32;;;;;;;-1.19;65.48;100451.28;3567314;40;20085;-64
2021/12/26 07:32:31;;;;;;;6.10;4.32;;;;;;;-1.19;66.12;100445.16;3565805;40;20358;-64
2021/12/26 07:35:00;;;;;;;6.25;4.18;;;;;;;-1.18;65.99;100447.75;3563116;40;20053;-64
2021/12/26 07:37:27;;;;;;;6.05;4.38;;;;;;;-1.15;64.72;100446.81;3563719;40;20168;-64
2021/12/26 07:39:54;;;;;;;6.05;4.28;;;;;;;-1.13;65.31;100441.53;3566690;40;20067;-64
2021/12/26 07:42:19;;;;;;;8.05;4.72;;;;;;;-1.24;65.42;100434.72;3569437;40;20049;-64
2021/12/26 07:44:45;;;;;;;7.95;4.85;;;;;;;-1.14;66.13;100445.06;3557124;40;20134;-64
2021/12/26 07:47:12;;;;;;;9.55;4.85;;;;;;;-1.13;66.23;100447.69;3569149;40;20075;-64
2021/12/26 07:49:38;;;;;;;10.30;5.22;;;;;;;-1.11;65.16;100445.88;3566876;40;20051;-64
2021/12/26 07:52:21;;;;;;;8.75;4.95;;;;;;;-1.10;65.94;100439.72;3565072;40;20053;-64
2021/12/26 07:54:47;;;;;;;7.18;4.68;;;;;;;-1.10;66.19;100444.97;3563680;40;20091;-64
2021/12/26 07:57:14;;;;;;;6.30;4.13;;;;;;;-1.11;65.48;100448.53;3566460;40;20084;-64
2021/12/26 07:59:41;;;;;;;8.07;4.70;;;;;;;-1.12;66.02;100452.03;3569485;40;20052;-66
2021/12/26 08:02:07;;;;;;;7.32;5.05;;;;;;;-1.04;65.57;100459.81;3568216;40;20273;-65
2021/12/26 08:04:33;;;;;;;7.05;4.90;;;;;;;-1.01;65.70;100467.69;3566319;40;20068;-65
2021/12/26 08:07:00;;;;;;;6.75;4.97;;;;;;;-1.03;66.25;100459.78;3569901;40;20119;-64
2021/12/26 08:09:26;;;;;;;8.27;5.07;;;;;;;-0.96;65.61;100463.16;3573000;40;20118;-64
2021/12/26 08:11:52;;;;;;;9.13;4.78;;;;;;;-1.00;65.53;100446.53;3571070;40;20300;-64
2021/12/26 08:14:18;;;;;;;6.53;4.68;;;;;;;-0.86;65.72;100453.28;3567982;40;20065;-65
2021/12/26 08:16:44;;;;;;;7.78;4.72;;;;;;;-0.99;66.10;100415.72;3606594;23;20299;-61
2021/12/26 08:19:10;;;;;;;7.65;4.68;;;;;;;-0.72;65.87;100462.66;3584627;40;20045;-60
2021/12/26 08:21:35;;;;;;;6.07;4.53;;;;;;;-0.69;65.91;100453.81;3586202;40;20588;-61
2021/12/26 08:24:02;;;;;;;6.68;4.60;;;;;;;-0.68;65.68;100449.38;3585326;40;20040;-62
2021/12/26 08:26:28;;;;;;;8.95;5.07;;;;;;;-0.61;65.01;100453.63;3573207;40;20326;-62
2021/12/26 08:28:54;;;;;;;7.60;5.10;;;;;;;-0.49;65.01;100461.28;3570796;40;20048;-61
2021/12/26 08:31:21;;;;;;;9.27;4.88;;;;;;;-0.43;64.50;100461.13;3569075;40;20303;-61
2021/12/26 08:33:47;;;;;;;9.05;5.30;;;;;;;-0.41;64.38;100445.25;3568911;40;20077;-61
2021/12/26 08:36:13;;;;;;;10.00;5.40;;;;;;;-0.30;65.01;100454.66;3569195;40;20068;-62
2021/12/26 08:38:39;;;;;;;8.23;4.95;;;;;;;-0.25;64.79;100450.16;3570001;40;20053;-61
2021/12/26 08:41:06;;;;;;;8.23;5.07;;;;;;;-0.16;64.68;100448.19;3567740;40;20314;-61
2021/12/26 08:43:32;;;;;;;8.73;5.40;;;;;;;-0.12;64.42;100444.59;3567758;40;20492;-61
2021/12/26 08:45:58;;;;;;;8.48;5.20;;;;;;;-0.04;64.89;100445.25;3567510;40;20065;-61
2021/12/26 08:48:24;;;;;;;8.57;5.13;;;;;;;-0.02;64.32;100443.44;3568451;40;20327;-61
2021/12/26 08:50:55;;;;;;;8.13;4.90;;;;;;;0.10;64.83;100443.16;3567499;40;20071;-61
2021/12/26 08:53:26;;;;;;;9.23;5.65;;;;;;;0.10;64.93;100429.94;3570330;40;20052;-61
2021/12/26 08:55:52;;;;;;;7.97;5.47;;;;;;;0.17;64.70;100444.72;3567187;40;20057;-61
2021/12/26 08:58:19;;;;;;;10.57;4.95;;;;;;;0.18;64.27;100435.00;3567295;40;20131;-61
2021/12/26 09:00:45;;;;;;;9.98;5.25;;;;;;;0.20;63.52;100436.72;3567886;40;20091;-61
2021/12/26 09:03:11;;;;;;;9.55;5.30;;;;;;;0.28;64.02;100444.44;3570114;40;20049;-61
2021/12/26 09:05:37;;;;;;;9.75;4.93;;;;;;;0.12;63.89;100406.97;3568982;40;20057;-61
2021/12/26 09:08:03;;;;;;;8.43;4.97;;;;;;;0.27;63.76;100424.19;3569502;40;20605;-62
2021/12/26 09:10:29;;;;;;;9.43;5.57;;;;;;;0.31;63.61;100410.00;3566785;40;20049;-61
2021/12/26 09:12:55;;;;;;;9.80;5.50;;;;;;;0.45;64.76;100412.28;3569784;40;20422;-61
2021/12/26 09:15:22;;;;;;;9.57;5.07;;;;;;;0.59;63.94;100430.41;3568855;40;20120;-62
2021/12/26 09:17:49;;;;;;;8.63;5.07;;;;;;;0.54;63.67;100422.63;3567183;40;20097;-61
2021/12/26 09:20:15;;;;;;;9.10;5.85;;;;;;;0.59;64.32;100425.13;3569890;40;20048;-62
2021/12/26 09:22:42;;;;;;;9.45;5.40;;;;;;;0.69;64.35;100427.47;3567013;40;20056;-62
2021/12/26 09:25:10;;;;;;;11.80;5.57;;;;;;;0.74;63.23;100439.72;3569111;40;20092;-61
2021/12/26 09:27:37;;;;;;;12.45;5.63;;;;;;;0.79;64.33;100437.78;3567695;40;20106;-62
2021/12/26 09:30:07;;;;;;;10.02;5.40;;;;;;;0.80;63.83;100435.13;3567517;40;20054;-62
2021/12/26 09:32:35;;;;;;;9.65;5.55;;;;;;;0.91;63.87;100440.09;3567063;40;20060;-61
2021/12/26 09:35:01;;;;;;;9.48;5.55;;;;;;;0.97;63.73;100450.50;3567368;40;20049;-62
2021/12/26 09:37:27;;;;;;;9.05;5.55;;;;;;;1.00;63.02;100442.47;3566275;40;20113;-61
2021/12/26 09:39:53;;;;;;;8.57;5.35;;;;;;;0.91;64.31;100411.84;3572173;40;20065;-61
2021/12/26 09:42:19;;;;;;;8.50;5.82;;;;;;;1.06;64.45;100439.66;3572094;40;20096;-61
2021/12/26 09:44:46;;;;;;;11.48;5.90;;;;;;;1.02;63.88;100427.44;3567796;40;20065;-62
2021/12/26 09:47:13;;;;;;;9.85;5.53;;;;;;;1.12;62.87;100447.41;3566451;40;20061;-62
2021/12/26 09:49:39;;;;;;;9.13;5.88;;;;;;;1.13;63.73;100443.84;3570111;40;20059;-61
2021/12/26 09:52:06;;;;;;;8.98;5.70;;;;;;;1.09;63.77;100444.88;3566177;40;20053;-63
2021/12/26 09:54:33;;;;;;;8.60;6.07;;;;;;;1.20;64.09;100444.53;3567362;40;20096;-61
2021/12/26 09:56:59;;;;;;;11.50;6.28;;;;;;;1.25;64.17;100439.97;3568436;40;20077;-62
2021/12/26 09:59:27;;;;;;;12.73;6.30;;;;;;;1.27;64.12;100424.94;3566941;40;20093;-62
2021/12/26 10:01:56;;;;;;;9.20;6.38;;;;;;;1.39;64.26;100440.41;3567849;40;20057;-61
2021/12/26 10:04:29;;;;;;;10.55;5.93;;;;;;;1.45;63.30;100426.13;3568182;40;20056;-62
2021/12/26 10:07:15;;;;;;;11.43;6.20;;;;;;;1.50;63.06;100418.94;3569410;40;20072;-61
2021/12/26 10:09:48;;;;;;;9.27;6.10;;;;;;;1.56;64.12;100426.69;3568115;40;20065;-62
2021/12/26 10:12:17;;;;;;;11.70;6.63;;;;;;;1.55;63.72;100403.72;3567423;40;20056;-61
2021/12/26 10:14:48;;;;;;;8.45;6.38;;;;;;;1.58;63.71;100398.34;3570208;40;20231;-62
2021/12/26 10:17:23;;;;;;;9.55;6.10;;;;;;;1.67;63.72;100407.78;3567689;40;20053;-61
2021/12/26 10:19:51;;;;;;;9.85;5.60;;;;;;;1.73;63.07;100407.59;3566377;40;20199;-63
2021/12/26 10:22:28;;;;;;;8.25;6.10;;;;;;;1.72;63.24;100383.81;3566675;40;20052;-62
2021/12/26 10:24:55;;;;;;;9.57;6.25;;;;;;;1.80;63.37;100402.97;3571842;40;20053;-61
2021/12/26 10:27:30;;;;;;;9.68;6.43;;;;;;;1.81;63.84;100394.13;3570158;40;20391;-61
2021/12/26 10:29:59;;;;;;;9.82;6.65;;;;;;;1.85;64.39;100393.09;3565959;40;20388;-62
2021/12/26 10:32:33;;;;;;;10.27;6.32;;;;;;;1.77;64.33;100388.03;3566255;40;20505;-62
2021/12/26 10:35:16;;;;;;;10.82;6.45;;;;;;;1.72;63.49;100374.06;3567544;40;20164;-62
2021/12/26 10:37:52;;;;;;;13.23;6.95;;;;;;;1.85;63.68;100382.47;3570953;40;20055;-62
2021/12/26 10:40:25;;;;;;;12.43;7.00;;;;;;;1.89;64.16;100384.09;3575425;40;20411;-63
2021/12/26 10:42:56;;;;;;;13.82;7.15;;;;;;;1.84;64.28;100367.50;3569873;40;20048;-62
2021/12/26 10:45:40;;;;;;;10.32;6.70;;;;;;;1.94;64.51;100382.19;3569503;40;20052;-62
2021/12/26 10:48:08;;;;;;;13.20;7.18;;;;;;;1.94;64.54;100373.38;3565583;40;20419;-62
2021/12/26 10:50:38;;;;;;;10.52;6.63;;;;;;;1.92;64.79;100369.91;3565882;40;20048;-62
2021/12/26 10:53:11;;;;;;;14.55;7.28;;;;;;;1.97;64.05;100368.81;3566288;40;20059;-62
2021/12/26 10:55:51;;;;;;;13.32;7.55;;;;;;;2.02;64.48;100369.53;3568775;40;20353;-62
2021/12/26 10:58:21;;;;;;;12.57;7.30;;;;;;;2.04;64.48;100370.34;3570698;40;20356;-63
2021/12/26 11:00:53;;;;;;;13.70;7.47;;;;;;;2.07;64.06;100364.06;3571164;40;20068;-63
2021/12/26 11:03:27;;;;;;;13.00;7.57;;;;;;;2.12;64.76;100361.25;3568206;40;20127;-63
2021/12/26 11:06:00;;;;;;;12.93;7.68;;;;;;;2.11;64.45;100349.78;3570714;40;20057;-62
2021/12/26 11:08:39;;;;;;;13.18;7.88;;;;;;;2.17;65.09;100338.09;3567637;40;20060;-63
2021/12/26 11:11:17;;;;;;;11.93;7.57;;;;;;;2.31;65.19;100362.34;3568605;40;20330;-62
2021/12/26 11:13:43;;;;;;;14.65;8.10;;;;;;;2.31;64.58;100355.25;3568228;40;20088;-62
2021/12/26 11:16:11;;;;;;;13.07;8.27;;;;;;;2.24;64.60;100337.81;3567365;40;20069;-62
2021/12/26 11:18:38;;;;;;;12.23;7.90;;;;;;;2.24;64.72;100332.53;3567886;40;20064;-63
2021/12/26 11:21:14;;;;;;;11.45;7.68;;;;;;;2.22;65.00;100336.13;3569191;40;20075;-62
2021/12/26 11:23:44;;;;;;;14.57;8.02;;;;;;;2.41;64.96;100355.81;3567297;40;20458;-62
2021/12/26 11:26:17;;;;;;;14.15;8.00;;;;;;;2.43;65.10;100350.44;3569691;40;20088;-62
2021/12/26 11:28:50;;;;;;;11.95;7.85;;;;;;;2.46;64.88;100348.53;3566166;40;20399;-62
2021/12/26 11:31:28;;;;;;;14.25;7.60;;;;;;;2.47;64.23;100349.41;3568739;40;20053;-63
2021/12/26 11:34:04;;;;;;;10.45;7.45;;;;;;;2.51;65.52;100345.72;3565398;40;20049;-62